BOX425 EDDP-EBBR
Flight info
| Callsign | BOX425 |
|---|---|
| Flight time | N/A |
| Altitude | 34000 |
| Route | ORTAG1X ORTAG Q230 KUMER DCT WRB DCT ABAMI Z717 NEREL/N0404F240 T855 AGENI/N0371F180 T855 BATTY |
| Aircraft | B77L/H-SDE1E2E3FGHIJ2J3J4J5M1RWXY/LB1D1 |
Departure
| Time | 2026-05-07 17:56 |
|---|---|
| Airport | Leipzig/Halle Airport (EDDP) |
Arrival
| Time | N/A |
|---|---|
| Airport | Brussels Airport (EBBR) |
| Time | Latitude | Longitude | Altitude | Speed | Heading |
|---|---|---|---|---|---|
| 2026-05-07 17:28 | 51.40986 | 12.24322 | 456 ft | 0 kts | 85° |
| 2026-05-07 17:45 | 51.40984 | 12.24304 | 456 ft | 2 kts | 74° |
| 2026-05-07 17:45 | 51.40979 | 12.24282 | 457 ft | 2 kts | 59° |
| 2026-05-07 17:46 | 51.40970 | 12.24262 | 457 ft | 2 kts | 46° |
| 2026-05-07 17:46 | 51.40959 | 12.24247 | 457 ft | 2 kts | 32° |
| 2026-05-07 17:46 | 51.40946 | 12.24236 | 457 ft | 2 kts | 19° |
| 2026-05-07 17:46 | 51.40932 | 12.24230 | 457 ft | 2 kts | 5° |
| 2026-05-07 17:47 | 51.40917 | 12.24230 | 457 ft | 2 kts | 354° |
| 2026-05-07 17:47 | 51.40911 | 12.24231 | 456 ft | 0 kts | 353° |
| 2026-05-07 17:49 | 51.40922 | 12.24230 | 457 ft | 4 kts | 356° |
| 2026-05-07 17:49 | 51.40970 | 12.24225 | 458 ft | 9 kts | 356° |
| 2026-05-07 17:49 | 51.41026 | 12.24219 | 459 ft | 0 kts | 356° |
| 2026-05-07 17:50 | 51.41030 | 12.24218 | 459 ft | 3 kts | 354° |
| 2026-05-07 17:50 | 51.41042 | 12.24215 | 459 ft | 3 kts | 335° |
| 2026-05-07 17:50 | 51.41065 | 12.24114 | 461 ft | 16 kts | 279° |
| 2026-05-07 17:50 | 51.41062 | 12.23906 | 465 ft | 21 kts | 266° |
| 2026-05-07 17:51 | 51.41051 | 12.23667 | 467 ft | 20 kts | 265° |
| 2026-05-07 17:51 | 51.41040 | 12.23436 | 471 ft | 21 kts | 266° |
| 2026-05-07 17:51 | 51.41029 | 12.23186 | 476 ft | 23 kts | 266° |
| 2026-05-07 17:51 | 51.41017 | 12.22912 | 479 ft | 25 kts | 266° |
| 2026-05-07 17:52 | 51.41004 | 12.22634 | 479 ft | 24 kts | 266° |
| 2026-05-07 17:52 | 51.40993 | 12.22405 | 474 ft | 12 kts | 268° |
| 2026-05-07 17:52 | 51.41040 | 12.22308 | 471 ft | 12 kts | 331° |
| 2026-05-07 17:52 | 51.41069 | 12.22162 | 467 ft | 16 kts | 266° |
| 2026-05-07 17:53 | 51.41061 | 12.21975 | 463 ft | 17 kts | 266° |
| 2026-05-07 17:53 | 51.41051 | 12.21770 | 457 ft | 18 kts | 265° |
| 2026-05-07 17:53 | 51.41041 | 12.21550 | 452 ft | 20 kts | 266° |
| 2026-05-07 17:53 | 51.41030 | 12.21311 | 445 ft | 23 kts | 265° |
| 2026-05-07 17:54 | 51.41018 | 12.21048 | 440 ft | 24 kts | 266° |
| 2026-05-07 17:54 | 51.41007 | 12.20769 | 431 ft | 26 kts | 266° |
| 2026-05-07 17:54 | 51.40997 | 12.20552 | 429 ft | 14 kts | 276° |
| 2026-05-07 17:54 | 51.41070 | 12.20492 | 428 ft | 14 kts | 11° |
| 2026-05-07 17:55 | 51.41154 | 12.20559 | 427 ft | 13 kts | 54° |
| 2026-05-07 17:55 | 51.41169 | 12.20641 | 429 ft | 0 kts | 85° |
| 2026-05-07 17:55 | 51.41181 | 12.20882 | 433 ft | 63 kts | 85° |
| 2026-05-07 17:55 | 51.41237 | 12.22040 | 459 ft | 153 kts | 85° |
| 2026-05-07 17:56 | 51.41327 | 12.24094 | 1063 ft | 203 kts | 83° |
| 2026-05-07 17:56 | 51.41422 | 12.26145 | 2379 ft | 182 kts | 82° |
| 2026-05-07 17:56 | 51.41520 | 12.28182 | 2966 ft | 191 kts | 82° |
| 2026-05-07 17:56 | 51.41624 | 12.30384 | 3466 ft | 206 kts | 82° |
| 2026-05-07 17:57 | 51.41733 | 12.32738 | 3931 ft | 223 kts | 83° |
| 2026-05-07 17:57 | 51.41850 | 12.35279 | 4464 ft | 238 kts | 83° |
| 2026-05-07 17:57 | 51.42081 | 12.37970 | 4983 ft | 252 kts | 69° |
| 2026-05-07 17:57 | 51.42967 | 12.40432 | 5626 ft | 259 kts | 44° |
| 2026-05-07 17:58 | 51.44433 | 12.42052 | 6399 ft | 262 kts | 20° |
| 2026-05-07 17:58 | 51.46223 | 12.42524 | 7161 ft | 266 kts | 355° |
| 2026-05-07 17:58 | 51.48014 | 12.41936 | 7916 ft | 270 kts | 345° |
| 2026-05-07 17:58 | 51.49835 | 12.41110 | 8702 ft | 273 kts | 345° |
| 2026-05-07 17:59 | 51.51661 | 12.40305 | 9416 ft | 277 kts | 345° |
| 2026-05-07 17:59 | 51.53533 | 12.39502 | 10132 ft | 281 kts | 345° |
| 2026-05-07 17:59 | 51.55355 | 12.38253 | 10567 ft | 297 kts | 325° |
| 2026-05-07 17:59 | 51.56777 | 12.35736 | 10879 ft | 317 kts | 298° |
| 2026-05-07 18:00 | 51.57365 | 12.32211 | 11207 ft | 339 kts | 272° |
| 2026-05-07 18:00 | 51.57235 | 12.28377 | 11623 ft | 355 kts | 265° |
| 2026-05-07 18:00 | 51.56979 | 12.24357 | 12155 ft | 369 kts | 265° |
| 2026-05-07 18:00 | 51.56706 | 12.20218 | 12949 ft | 376 kts | 265° |
| 2026-05-07 18:01 | 51.56450 | 12.16082 | 13842 ft | 380 kts | 268° |
| 2026-05-07 18:01 | 51.56374 | 12.11841 | 14807 ft | 384 kts | 270° |
| 2026-05-07 18:01 | 51.56324 | 12.07564 | 15832 ft | 389 kts | 270° |
| 2026-05-07 18:01 | 51.56273 | 12.03201 | 16871 ft | 392 kts | 270° |
| 2026-05-07 18:02 | 51.56163 | 11.94442 | 18831 ft | 400 kts | 270° |
| 2026-05-07 18:02 | 51.56105 | 11.89950 | 19757 ft | 405 kts | 270° |
| 2026-05-07 18:02 | 51.56044 | 11.85424 | 20598 ft | 411 kts | 270° |
| 2026-05-07 18:03 | 51.55981 | 11.80838 | 21443 ft | 416 kts | 270° |
| 2026-05-07 18:03 | 51.55916 | 11.76199 | 22263 ft | 421 kts | 270° |
| 2026-05-07 18:03 | 51.55847 | 11.71481 | 23063 ft | 426 kts | 270° |
| 2026-05-07 18:03 | 51.55776 | 11.66730 | 23841 ft | 431 kts | 270° |
| 2026-05-07 18:04 | 51.55702 | 11.61929 | 24608 ft | 436 kts | 270° |
| 2026-05-07 18:04 | 51.55626 | 11.57075 | 25369 ft | 441 kts | 270° |
| 2026-05-07 18:04 | 51.55545 | 11.52154 | 26083 ft | 446 kts | 270° |
| 2026-05-07 18:04 | 51.55463 | 11.47163 | 26815 ft | 451 kts | 270° |
| 2026-05-07 18:05 | 51.55376 | 11.42095 | 27536 ft | 456 kts | 270° |
| 2026-05-07 18:05 | 51.55286 | 11.36994 | 28286 ft | 460 kts | 270° |
| 2026-05-07 18:05 | 51.55194 | 11.31861 | 29011 ft | 465 kts | 269° |
| 2026-05-07 18:05 | 51.55098 | 11.26650 | 29798 ft | 468 kts | 269° |
| 2026-05-07 18:06 | 51.55001 | 11.21484 | 30832 ft | 465 kts | 268° |
| 2026-05-07 18:06 | 51.54909 | 11.16737 | 31751 ft | 460 kts | 268° |
| 2026-05-07 18:06 | 51.54807 | 11.11578 | 32518 ft | 457 kts | 268° |
| 2026-05-07 18:06 | 51.54705 | 11.06526 | 33024 ft | 458 kts | 268° |
| 2026-05-07 18:07 | 51.54600 | 11.01420 | 33476 ft | 459 kts | 268° |
| 2026-05-07 18:07 | 51.54492 | 10.96300 | 33877 ft | 462 kts | 268° |
| 2026-05-07 18:07 | 51.54380 | 10.91061 | 34020 ft | 463 kts | 268° |
| 2026-05-07 18:08 | 51.54152 | 10.80759 | 34055 ft | 460 kts | 268° |
| 2026-05-07 18:08 | 51.53917 | 10.70546 | 34061 ft | 460 kts | 268° |
| 2026-05-07 18:09 | 51.53685 | 10.60252 | 34065 ft | 460 kts | 269° |
| 2026-05-07 18:09 | 51.53536 | 10.50001 | 34046 ft | 460 kts | 269° |
| 2026-05-07 18:10 | 51.53378 | 10.39740 | 34059 ft | 460 kts | 269° |
| 2026-05-07 18:10 | 51.53209 | 10.29523 | 34065 ft | 460 kts | 269° |
| 2026-05-07 18:11 | 51.53028 | 10.19205 | 34070 ft | 460 kts | 269° |
| 2026-05-07 18:11 | 51.52838 | 10.08964 | 34072 ft | 460 kts | 269° |
| 2026-05-07 18:12 | 51.52638 | 9.98661 | 34074 ft | 461 kts | 269° |
| 2026-05-07 18:12 | 51.52431 | 9.88466 | 34083 ft | 460 kts | 269° |
| 2026-05-07 18:13 | 51.52213 | 9.78171 | 34074 ft | 460 kts | 269° |
| 2026-05-07 18:13 | 51.51988 | 9.67977 | 34073 ft | 460 kts | 269° |
| 2026-05-07 18:14 | 51.51753 | 9.57728 | 34077 ft | 459 kts | 269° |
| 2026-05-07 18:14 | 51.51508 | 9.47471 | 34079 ft | 459 kts | 269° |
| 2026-05-07 18:15 | 51.51254 | 9.37163 | 34073 ft | 459 kts | 269° |